Time,TemperatureF,DewpointF,PressureIn,WindDirection,WindDirectionDegrees,WindSpeedMPH,WindSpeedGustMPH,Humidity,HourlyPrecipIn,Conditions,Clouds,dailyrainin,SoftwareType,DateUTC
2013-06-08 00:00:00,57.8,57.2,29.83,North,5,0.0,3.0,98,0.00,,,0.04,VWS V14.01,2013-06-08 04:00:00,
2013-06-08 00:01:00,57.8,57.2,29.83,North,5,0.0,3.0,98,0.00,,,0.04,VWS V14.01,2013-06-08 04:01:00,
2013-06-08 00:02:00,57.8,57.2,29.83,North,4,0.0,3.0,98,0.00,,,0.04,VWS V14.01,2013-06-08 04:02:00,
2013-06-08 00:03:00,57.8,57.2,29.83,North,4,0.0,0.0,98,0.00,,,0.00,VWS V14.01,2013-06-08 04:03:00,
2013-06-08 00:08:00,57.7,57.1,29.83,NNW,338,0.0,1.0,98,0.00,,,0.00,VWS V14.01,2013-06-08 04:08:00,
2013-06-08 00:13:00,57.7,57.1,29.83,NNW,329,1.0,2.0,98,0.00,,,0.00,VWS V14.01,2013-06-08 04:13:00,
2013-06-08 00:18:00,57.7,57.1,29.83,West,276,1.0,2.0,98,0.00,,,0.00,VWS V14.01,2013-06-08 04:18:00,
2013-06-08 00:23:00,57.7,57.1,29.83,NW,316,0.0,2.0,98,0.00,,,0.00,VWS V14.01,2013-06-08 04:23:00,
2013-06-08 00:28:00,57.7,57.1,29.83,West,281,0.0,2.0,98,0.00,,,0.00,VWS V14.01,2013-06-08 04:28:00,
2013-06-08 00:30:00,57.7,57.1,29.83,WNW,285,0.0,2.0,98,0.00,,OVC,0.00,VWS V14.01,2013-06-08 04:30:00,
2013-06-08 00:33:00,57.7,57.1,29.83,WNW,285,0.0,0.0,98,0.00,,OVC003,0.00,VWS V14.01,2013-06-08 04:33:00,
2013-06-08 00:39:00,57.7,57.1,29.83,WNW,285,0.0,0.0,98,0.00,,OVC003,0.00,VWS V14.01,2013-06-08 04:39:00,
2013-06-08 00:44:00,57.6,57.0,29.83,NW,307,0.0,3.0,98,0.00,,OVC003,0.00,VWS V14.01,2013-06-08 04:44:00,
2013-06-08 00:49:00,57.6,57.0,29.83,NW,324,0.0,3.0,98,0.00,,OVC003,0.00,VWS V14.01,2013-06-08 04:49:00,
2013-06-08 00:54:00,57.7,57.1,29.83,ENE,60,0.0,3.0,98,0.00,,OVC003,0.00,VWS V14.01,2013-06-08 04:54:00,
2013-06-08 00:59:00,57.6,57.0,29.83,NNW,332,0.0,3.0,98,0.00,,OVC003,0.00,VWS V14.01,2013-06-08 04:59:00,
2013-06-08 01:00:00,57.6,57.0,29.83,WNW,285,0.0,3.0,98,0.00,,OVC,0.00,VWS V14.01,2013-06-08 05:00:00,
2013-06-08 01:04:00,57.6,57.0,29.83,WNW,285,0.0,0.0,98,0.00,,OVC003,0.00,VWS V14.01,2013-06-08 05:04:00,
2013-06-08 01:09:00,57.6,57.0,29.83,West,280,0.0,1.0,98,0.00,,OVC003,0.00,VWS V14.01,2013-06-08 05:09:00,
2013-06-08 01:14:00,57.6,57.0,29.83,NNE,15,0.0,3.0,98,0.00,,OVC003,0.00,VWS V14.01,2013-06-08 05:14:00,
2013-06-08 01:19:00,57.6,57.0,29.83,North,6,0.0,3.0,98,0.00,,OVC003,0.00,VWS V14.01,2013-06-08 05:19:00,
2013-06-08 01:24:00,57.6,57.0,29.83,North,5,0.0,3.0,98,0.00,,OVC003,0.00,VWS V14.01,2013-06-08 05:24:00,
2013-06-08 01:29:00,57.6,57.0,29.83,North,6,0.0,3.0,98,0.00,,OVC003,0.00,VWS V14.01,2013-06-08 05:29:00,
2013-06-08 01:30:00,57.5,56.9,29.83,NW,314,0.0,3.0,98,0.00,,OVC,0.00,VWS V14.01,2013-06-08 05:30:00,
2013-06-08 01:34:00,57.5,56.9,29.83,NW,319,0.0,0.0,98,0.01,,OVC003,0.01,VWS V14.01,2013-06-08 05:34:00,
2013-06-08 01:39:00,57.5,56.9,29.83,North,1,0.0,1.0,98,0.01,,OVC003,0.01,VWS V14.01,2013-06-08 05:39:00,
2013-06-08 01:45:00,57.4,56.8,29.83,NW,307,0.0,2.0,98,0.01,,OVC003,0.01,VWS V14.01,2013-06-08 05:45:00,
2013-06-08 01:50:00,57.4,56.8,29.82,NNW,335,1.0,2.0,98,0.01,,OVC003,0.01,VWS V14.01,2013-06-08 05:50:00,
2013-06-08 01:55:00,57.3,56.7,29.82,NW,305,0.0,2.0,98,0.01,,OVC003,0.01,VWS V14.01,2013-06-08 05:55:00,
2013-06-08 02:00:00,57.3,56.7,29.82,West,281,0.0,2.0,98,0.01,,OVC003,0.01,VWS V14.01,2013-06-08 06:00:00,
2013-06-08 02:05:00,57.2,56.6,29.82,NW,312,0.0,1.0,98,0.01,,OVC003,0.01,VWS V14.01,2013-06-08 06:05:00,
2013-06-08 02:10:00,57.2,56.6,29.82,NW,312,0.0,1.0,98,0.01,,OVC003,0.01,VWS V14.01,2013-06-08 06:10:00,
2013-06-08 02:15:00,57.2,56.6,29.82,WNW,300,1.0,1.0,98,0.01,,OVC003,0.01,VWS V14.01,2013-06-08 06:15:00,
2013-06-08 02:20:00,57.1,56.5,29.82,NNE,18,0.0,3.0,98,0.01,,OVC003,0.01,VWS V14.01,2013-06-08 06:20:00,
2013-06-08 02:25:00,57.1,56.5,29.82,NW,308,0.0,3.0,98,0.01,,OVC003,0.01,VWS V14.01,2013-06-08 06:25:00,
2013-06-08 02:30:00,57.0,56.4,29.82,NE,47,0.0,3.0,98,0.01,,OVC003,0.01,VWS V14.01,2013-06-08 06:30:00,
2013-06-08 02:35:00,57.0,56.4,29.82,ENE,75,0.0,1.0,98,0.01,,OVC005,0.01,VWS V14.01,2013-06-08 06:35:00,
2013-06-08 02:41:00,57.0,56.4,29.82,WSW,239,0.0,1.0,98,0.01,,OVC005,0.01,VWS V14.01,2013-06-08 06:41:00,
2013-06-08 02:46:00,57.0,56.4,29.82,WSW,254,0.0,1.0,98,0.01,,OVC005,0.01,VWS V14.01,2013-06-08 06:46:00,
2013-06-08 02:51:00,56.9,56.3,29.83,West,262,0.0,1.0,98,0.01,,OVC005,0.01,VWS V14.01,2013-06-08 06:51:00,
2013-06-08 02:56:00,56.8,56.2,29.83,WSW,253,0.0,1.0,98,0.01,,OVC005,0.01,VWS V14.01,2013-06-08 06:56:00,
2013-06-08 03:00:00,56.8,56.2,29.83,West,273,0.0,2.0,98,0.01,,OVC,0.01,VWS V14.01,2013-06-08 07:00:00,
2013-06-08 03:01:00,56.8,56.2,29.83,West,277,0.0,2.0,98,0.01,,OVC005,0.01,VWS V14.01,2013-06-08 07:01:00,
2013-06-08 03:06:00,56.7,56.1,29.83,West,271,0.0,0.0,98,0.00,,OVC005,0.01,VWS V14.01,2013-06-08 07:06:00,
2013-06-08 03:12:00,56.8,56.2,29.82,West,271,0.0,0.0,98,0.00,,OVC005,0.01,VWS V14.01,2013-06-08 07:12:00,
2013-06-08 03:17:00,56.7,56.1,29.83,West,271,0.0,0.0,98,0.00,,OVC005,0.01,VWS V14.01,2013-06-08 07:17:00,
2013-06-08 03:22:00,56.7,56.1,29.83,WNW,294,1.0,2.0,98,0.00,,OVC005,0.01,VWS V14.01,2013-06-08 07:22:00,
2013-06-08 03:27:00,56.7,56.1,29.83,WNW,287,0.0,2.0,98,0.00,,OVC005,0.01,VWS V14.01,2013-06-08 07:27:00,
2013-06-08 03:30:00,56.7,56.1,29.83,West,270,1.0,4.0,98,0.00,,OVC,0.01,VWS V14.01,2013-06-08 07:30:00,
2013-06-08 03:32:00,56.7,56.1,29.83,WSW,252,1.0,4.0,98,0.00,,,0.01,VWS V14.01,2013-06-08 07:32:00,
2013-06-08 03:37:00,56.7,56.1,29.83,North,10,0.0,1.0,98,0.00,,,0.01,VWS V14.01,2013-06-08 07:37:00,
2013-06-08 03:42:00,56.7,56.1,29.83,WSW,250,0.0,2.0,98,0.00,,,0.01,VWS V14.01,2013-06-08 07:42:00,
2013-06-08 03:47:00,56.7,56.1,29.83,West,259,0.0,2.0,98,0.00,,,0.01,VWS V14.01,2013-06-08 07:47:00,
2013-06-08 03:52:00,56.5,55.9,29.83,NW,314,0.0,3.0,98,0.00,,,0.01,VWS V14.01,2013-06-08 07:52:00,
2013-06-08 03:57:00,56.5,55.9,29.83,NW,322,0.0,3.0,98,0.00,,,0.01,VWS V14.01,2013-06-08 07:57:00,
2013-06-08 04:00:00,56.4,55.8,29.83,North,9,0.0,5.0,98,0.00,,OVC,0.01,VWS V14.01,2013-06-08 08:00:00,
2013-06-08 04:02:00,56.4,55.8,29.83,North,9,0.0,5.0,98,0.00,,,0.01,VWS V14.01,2013-06-08 08:02:00,
2013-06-08 04:07:00,56.4,55.8,29.83,NNW,345,0.0,0.0,98,0.00,,,0.01,VWS V14.01,2013-06-08 08:07:00,
2013-06-08 04:13:00,56.3,55.8,29.84,NNE,17,0.0,6.0,98,0.00,,,0.01,VWS V14.01,2013-06-08 08:13:00,
2013-06-08 04:18:00,56.3,55.8,29.84,NW,318,1.0,6.0,98,0.00,,,0.01,VWS V14.01,2013-06-08 08:18:00,
2013-06-08 04:23:00,56.3,55.8,29.84,North,3,4.0,6.0,98,0.00,,,0.01,VWS V14.01,2013-06-08 08:23:00,
2013-06-08 04:28:00,56.2,55.7,29.84,WNW,302,1.0,6.0,98,0.00,,,0.01,VWS V14.01,2013-06-08 08:28:00,
2013-06-08 04:30:00,56.2,55.7,29.84,West,273,1.0,6.0,98,0.00,,OVC,0.01,VWS V14.01,2013-06-08 08:30:00,
2013-06-08 04:33:00,56.2,55.7,29.84,NW,322,1.0,1.0,98,0.00,,,0.01,VWS V14.01,2013-06-08 08:33:00,
2013-06-08 04:38:00,56.1,55.5,29.84,WNW,298,0.0,2.0,98,0.00,,,0.01,VWS V14.01,2013-06-08 08:38:00,
2013-06-08 04:43:00,56.1,55.5,29.85,NW,307,0.0,3.0,98,0.00,,,0.01,VWS V14.01,2013-06-08 08:43:00,
2013-06-08 04:48:00,56.1,55.5,29.84,NW,314,2.0,4.0,98,0.00,,OVC003,0.01,VWS V14.01,2013-06-08 08:48:00,
2013-06-08 04:53:00,56.0,55.5,29.84,NW,320,0.0,4.0,98,0.00,,OVC003,0.01,VWS V14.01,2013-06-08 08:53:00,
2013-06-08 04:58:00,56.0,55.5,29.85,WNW,300,0.0,4.0,98,0.00,,OVC003,0.01,VWS V14.01,2013-06-08 08:58:00,
2013-06-08 05:00:00,55.9,55.3,29.85,WSW,242,0.0,4.0,98,0.00,,OVC,0.01,VWS V14.01,2013-06-08 09:00:00,
2013-06-08 05:03:00,56.0,55.5,29.85,WSW,242,0.0,0.0,98,0.00,,OVC003,0.01,VWS V14.01,2013-06-08 09:03:00,
2013-06-08 05:08:00,55.9,55.3,29.85,WSW,257,0.0,2.0,98,0.00,,OVC003,0.01,VWS V14.01,2013-06-08 09:08:00,
2013-06-08 05:13:00,55.9,55.3,29.85,WSW,254,1.0,2.0,98,0.00,,OVC003,0.01,VWS V14.01,2013-06-08 09:13:00,
2013-06-08 05:18:00,55.9,55.3,29.86,NW,322,0.0,2.0,98,0.00,,OVC003,0.01,VWS V14.01,2013-06-08 09:18:00,
2013-06-08 05:24:00,55.8,55.2,29.86,NNW,331,0.0,2.0,98,0.00,,OVC003,0.01,VWS V14.01,2013-06-08 09:24:00,
2013-06-08 05:29:00,55.8,55.2,29.86,North,353,1.0,2.0,98,0.00,,OVC003,0.01,VWS V14.01,2013-06-08 09:29:00,
2013-06-08 05:30:00,55.8,55.2,29.86,WSW,253,0.0,2.0,98,0.00,,OVC,0.01,VWS V14.01,2013-06-08 09:30:00,
2013-06-08 05:34:00,55.8,55.2,29.86,WSW,253,0.0,0.0,98,0.00,,OVC003,0.01,VWS V14.01,2013-06-08 09:34:00,
2013-06-08 05:39:00,55.8,55.2,29.86,WSW,253,0.0,1.0,98,0.00,,OVC003,0.01,VWS V14.01,2013-06-08 09:39:00,
2013-06-08 05:44:00,55.8,55.2,29.87,WNW,295,0.0,2.0,98,0.00,,OVC003,0.01,VWS V14.01,2013-06-08 09:44:00,
2013-06-08 05:49:00,55.9,55.3,29.87,WNW,295,0.0,2.0,98,0.00,,OVC005,0.01,VWS V14.01,2013-06-08 09:49:00,
2013-06-08 05:54:00,55.9,55.3,29.87,WSW,250,0.0,2.0,98,0.00,,OVC005,0.01,VWS V14.01,2013-06-08 09:54:00,
2013-06-08 05:59:00,55.9,55.3,29.87,WSW,250,0.0,2.0,98,0.00,,OVC005,0.01,VWS V14.01,2013-06-08 09:59:00,
2013-06-08 06:00:00,56.0,55.5,29.88,NE,48,0.0,2.0,98,0.00,,OVC,0.01,VWS V14.01,2013-06-08 10:00:00,
2013-06-08 06:04:00,56.0,55.5,29.88,WSW,239,0.0,0.0,98,0.00,,OVC005,0.01,VWS V14.01,2013-06-08 10:04:00,
2013-06-08 06:09:00,56.0,55.5,29.88,WSW,239,0.0,0.0,98,0.00,,OVC005,0.01,VWS V14.01,2013-06-08 10:09:00,
2013-06-08 06:14:00,56.0,55.5,29.88,West,264,0.0,0.0,98,0.00,,OVC005,0.01,VWS V14.01,2013-06-08 10:14:00,
2013-06-08 06:19:00,56.0,55.5,29.88,NW,307,0.0,0.0,98,0.00,,OVC005,0.01,VWS V14.01,2013-06-08 10:19:00,
2013-06-08 06:24:00,56.1,55.5,29.89,WSW,247,0.0,0.0,98,0.00,,OVC005,0.01,VWS V14.01,2013-06-08 10:24:00,
2013-06-08 06:29:00,56.1,55.5,29.89,West,276,1.0,2.0,98,0.00,,OVC005,0.01,VWS V14.01,2013-06-08 10:29:00,
2013-06-08 06:30:00,56.2,55.7,29.89,West,278,0.0,2.0,98,0.00,,OVC,0.01,VWS V14.01,2013-06-08 10:30:00,
2013-06-08 06:34:00,56.2,55.7,29.89,West,278,0.0,0.0,98,0.00,,OVC005,0.01,VWS V14.01,2013-06-08 10:34:00,
2013-06-08 06:39:00,56.2,55.7,29.90,West,274,0.0,0.0,98,0.00,,OVC005,0.01,VWS V14.01,2013-06-08 10:39:00,
2013-06-08 06:45:00,56.2,55.7,29.90,West,273,0.0,0.0,98,0.00,,OVC005,0.01,VWS V14.01,2013-06-08 10:45:00,
2013-06-08 06:50:00,56.2,55.7,29.90,WNW,290,0.0,2.0,98,0.00,,OVC005,0.01,VWS V14.01,2013-06-08 10:50:00,
2013-06-08 06:55:00,56.2,55.7,29.90,West,264,0.0,2.0,98,0.00,,OVC005,0.01,VWS V14.01,2013-06-08 10:55:00,
2013-06-08 07:00:00,56.3,55.8,29.90,WNW,301,0.0,2.0,98,0.00,,OVC005,0.01,VWS V14.01,2013-06-08 11:00:00,
2013-06-08 07:05:00,56.3,55.8,29.91,West,270,1.0,1.0,98,0.00,,OVC005,0.01,VWS V14.01,2013-06-08 11:05:00,
2013-06-08 07:10:00,56.3,55.8,29.91,West,264,0.0,1.0,98,0.00,,OVC005,0.01,VWS V14.01,2013-06-08 11:10:00,
2013-06-08 07:15:00,56.4,55.8,29.91,WNW,300,1.0,2.0,98,0.00,,OVC005,0.01,VWS V14.01,2013-06-08 11:15:00,
2013-06-08 07:42:00,56.6,56.0,29.91,NW,309,0.0,0.0,98,0.00,,OVC005,0.01,VWS V14.01,2013-06-08 11:42:00,
2013-06-08 07:47:00,56.6,56.0,29.92,NW,307,0.0,0.0,98,0.00,,OVC005,0.01,VWS V14.01,2013-06-08 11:47:00,
2013-06-08 07:52:00,56.7,56.1,29.92,NW,308,0.0,0.0,98,0.00,,OVC005,0.01,VWS V14.01,2013-06-08 11:52:00,
2013-06-08 07:57:00,56.8,56.2,29.92,NW,307,0.0,0.0,98,0.00,,OVC005,0.01,VWS V14.01,2013-06-08 11:57:00,
2013-06-08 08:00:00,57.0,56.4,29.92,NW,307,0.0,0.0,98,0.00,,OVC065,0.01,VWS V14.01,2013-06-08 12:00:00,
2013-06-08 08:02:00,57.0,56.4,29.92,NW,307,0.0,0.0,98,0.00,,OVC005,0.01,VWS V14.01,2013-06-08 12:02:00,
2013-06-08 08:07:00,57.1,56.5,29.92,WSW,253,0.0,0.0,98,0.00,,OVC005,0.01,VWS V14.01,2013-06-08 12:07:00,
2013-06-08 08:12:00,57.0,56.4,29.92,WNW,301,0.0,3.0,98,0.00,,OVC005,0.01,VWS V14.01,2013-06-08 12:12:00,
2013-06-08 08:17:00,57.2,56.6,29.93,WNW,301,0.0,3.0,98,0.00,,OVC005,0.01,VWS V14.01,2013-06-08 12:17:00,
2013-06-08 08:23:00,57.2,56.6,29.93,WNW,285,0.0,3.0,98,0.01,,OVC005,0.02,VWS V14.01,2013-06-08 12:23:00,
2013-06-08 08:28:00,57.4,56.8,29.93,WNW,285,0.0,3.0,98,0.01,,OVC005,0.02,VWS V14.01,2013-06-08 12:28:00,
2013-06-08 08:30:00,57.5,56.9,29.93,WNW,285,0.0,3.0,98,0.01,,OVC065,0.02,VWS V14.01,2013-06-08 12:30:00,
2013-06-08 08:33:00,57.5,56.9,29.93,WNW,285,0.0,3.0,98,0.01,,OVC005,0.02,VWS V14.01,2013-06-08 12:33:00,
2013-06-08 08:38:00,57.5,56.9,29.93,West,262,0.0,1.0,98,0.01,,OVC005,0.02,VWS V14.01,2013-06-08 12:38:00,
2013-06-08 08:43:00,57.6,57.0,29.94,NW,326,0.0,2.0,98,0.01,,OVC005,0.02,VWS V14.01,2013-06-08 12:43:00,
2013-06-08 08:48:00,57.7,57.1,29.94,West,263,1.0,2.0,98,0.01,,OVC005,0.02,VWS V14.01,2013-06-08 12:48:00,
2013-06-08 08:53:00,57.8,57.2,29.94,WSW,256,1.0,2.0,98,0.01,,OVC005,0.02,VWS V14.01,2013-06-08 12:53:00,
2013-06-08 08:58:00,58.0,57.4,29.94,NW,316,1.0,2.0,98,0.01,,OVC005,0.02,VWS V14.01,2013-06-08 12:58:00,
2013-06-08 09:00:00,58.1,57.5,29.94,WNW,300,0.0,2.0,98,0.01,,OVC065,0.02,VWS V14.01,2013-06-08 13:00:00,
2013-06-08 09:03:00,58.1,57.5,29.94,WNW,300,0.0,0.0,98,0.01,,OVC005,0.02,VWS V14.01,2013-06-08 13:03:00,
2013-06-08 09:08:00,58.1,57.5,29.95,North,352,0.0,1.0,98,0.01,,OVC005,0.02,VWS V14.01,2013-06-08 13:08:00,
2013-06-08 09:13:00,58.2,57.6,29.95,WNW,290,1.0,2.0,98,0.01,,OVC005,0.02,VWS V14.01,2013-06-08 13:13:00,
2013-06-08 09:18:00,58.4,57.8,29.95,WSW,250,0.0,3.0,98,0.01,,OVC007,0.02,VWS V14.01,2013-06-08 13:18:00,
2013-06-08 09:23:00,58.8,58.2,29.95,West,267,1.0,3.0,98,0.01,,OVC007,0.02,VWS V14.01,2013-06-08 13:23:00,
2013-06-08 09:29:00,58.9,58.3,29.95,WSW,248,1.0,3.0,98,0.01,,OVC007,0.02,VWS V14.01,2013-06-08 13:29:00,
2013-06-08 09:30:00,59.0,58.4,29.95,WSW,250,2.0,5.0,98,0.01,,OVC065,0.02,VWS V14.01,2013-06-08 13:30:00,
2013-06-08 09:34:00,59.1,58.5,29.95,WNW,301,0.0,3.0,98,0.00,,OVC030,0.02,VWS V14.01,2013-06-08 13:34:00,
2013-06-08 09:39:00,59.1,58.2,29.95,NW,316,0.0,3.0,97,0.00,,OVC030,0.02,VWS V14.01,2013-06-08 13:39:00,
2013-06-08 09:44:00,59.3,58.5,29.95,West,266,2.0,3.0,97,0.00,,OVC030,0.02,VWS V14.01,2013-06-08 13:44:00,
2013-06-08 09:49:00,59.2,58.1,29.95,West,269,1.0,3.0,96,0.00,,OVC030,0.02,VWS V14.01,2013-06-08 13:49:00,
2013-06-08 09:54:00,59.0,57.9,29.95,West,270,0.0,3.0,96,0.00,,OVC030,0.02,VWS V14.01,2013-06-08 13:54:00,
2013-06-08 09:59:00,58.9,57.8,29.95,West,269,1.0,3.0,96,0.00,,OVC030,0.02,VWS V14.01,2013-06-08 13:59:00,
2013-06-08 10:00:00,58.8,57.7,29.95,NW,314,1.0,3.0,96,0.00,,OVC065,0.02,VWS V14.01,2013-06-08 14:00:00,
2013-06-08 10:04:00,58.8,57.7,29.95,West,267,2.0,2.0,96,0.00,,OVC030,0.02,VWS V14.01,2013-06-08 14:04:00,
2013-06-08 10:10:00,58.8,57.7,29.95,West,277,1.0,3.0,96,0.00,,OVC030,0.02,VWS V14.01,2013-06-08 14:10:00,
2013-06-08 10:15:00,58.9,57.8,29.95,West,271,2.0,8.0,96,0.00,,OVC030,0.02,VWS V14.01,2013-06-08 14:15:00,
2013-06-08 10:20:00,59.5,58.4,29.95,WNW,303,2.0,8.0,96,0.00,,OVC030,0.02,VWS V14.01,2013-06-08 14:20:00,
2013-06-08 10:25:00,60.1,58.7,29.95,West,278,1.0,8.0,95,0.00,,OVC030,0.02,VWS V14.01,2013-06-08 14:25:00,
2013-06-08 10:30:00,60.2,58.5,29.94,WNW,284,1.0,8.0,94,0.00,,OVC030,0.02,VWS V14.01,2013-06-08 14:30:00,
2013-06-08 10:35:00,60.1,58.4,29.95,WSW,248,1.0,2.0,94,0.00,,OVC015,0.02,VWS V14.01,2013-06-08 14:35:00,
2013-06-08 10:40:00,60.3,58.6,29.95,West,270,0.0,3.0,94,0.00,,OVC015,0.02,VWS V14.01,2013-06-08 14:40:00,
2013-06-08 10:45:00,60.3,58.3,29.95,WNW,303,3.0,4.0,93,0.00,,OVC015,0.02,VWS V14.01,2013-06-08 14:45:00,
2013-06-08 10:50:00,60.2,58.2,29.95,NW,316,3.0,5.0,93,0.00,,OVC015,0.02,VWS V14.01,2013-06-08 14:50:00,
2013-06-08 10:55:00,60.2,58.2,29.94,WNW,291,1.0,6.0,93,0.00,,OVC015,0.02,VWS V14.01,2013-06-08 14:55:00,
2013-06-08 11:00:00,60.2,58.2,29.95,WSW,255,1.0,6.0,93,0.00,,OVC015,0.02,VWS V14.01,2013-06-08 15:00:00,
2013-06-08 11:05:00,60.1,58.1,29.95,West,278,1.0,2.0,93,0.00,,OVC015,0.02,VWS V14.01,2013-06-08 15:05:00,
2013-06-08 11:10:00,60.1,58.1,29.95,West,260,2.0,3.0,93,0.00,,OVC015,0.02,VWS V14.01,2013-06-08 15:10:00,
2013-06-08 11:15:00,60.0,58.0,29.96,West,267,2.0,3.0,93,0.00,,OVC015,0.02,VWS V14.01,2013-06-08 15:15:00,
2013-06-08 11:20:00,60.0,58.0,29.96,WNW,294,1.0,3.0,93,0.00,,OVC015,0.02,VWS V14.01,2013-06-08 15:20:00,
2013-06-08 11:25:00,60.2,58.2,29.97,West,267,0.0,3.0,93,0.00,,OVC015,0.02,VWS V14.01,2013-06-08 15:25:00,
2013-06-08 11:30:00,60.6,58.9,29.97,West,266,1.0,3.0,94,0.00,,OVC015,0.02,VWS V14.01,2013-06-08 15:30:00,
2013-06-08 11:35:00,61.1,58.8,29.97,West,262,1.0,2.0,92,0.00,,OVC018,0.02,VWS V14.01,2013-06-08 15:35:00,
2013-06-08 11:41:00,61.6,59.3,29.97,WSW,257,1.0,3.0,92,0.00,,OVC018,0.02,VWS V14.01,2013-06-08 15:41:00,
2013-06-08 11:46:00,62.0,59.0,29.97,West,267,1.0,6.0,90,0.00,,OVC018,0.02,VWS V14.01,2013-06-08 15:46:00,
2013-06-08 11:51:00,62.0,59.0,29.98,NE,44,1.0,6.0,90,0.00,,OVC018,0.02,VWS V14.01,2013-06-08 15:51:00,
2013-06-08 11:56:00,61.8,58.5,29.98,WSW,245,0.0,6.0,89,0.00,,OVC018,0.02,VWS V14.01,2013-06-08 15:56:00,
2013-06-08 12:00:00,61.7,58.4,29.98,North,356,0.0,6.0,89,0.00,,OVC065,0.02,VWS V14.01,2013-06-08 16:00:00,
2013-06-08 12:01:00,61.7,58.4,29.98,North,356,0.0,6.0,89,0.00,,OVC018,0.02,VWS V14.01,2013-06-08 16:01:00,
2013-06-08 12:07:00,61.6,58.3,29.98,NW,322,0.0,4.0,89,0.00,,OVC013,0.02,VWS V14.01,2013-06-08 16:07:00,
2013-06-08 12:12:00,61.5,58.5,29.98,NW,322,1.0,4.0,90,0.00,,OVC013,0.02,VWS V14.01,2013-06-08 16:12:00,
2013-06-08 12:17:00,61.7,59.0,29.98,West,274,0.0,4.0,91,0.00,,OVC013,0.02,VWS V14.01,2013-06-08 16:17:00,
2013-06-08 12:22:00,61.9,59.2,29.98,WSW,248,0.0,4.0,91,0.00,,OVC013,0.02,VWS V14.01,2013-06-08 16:22:00,
2013-06-08 12:27:00,62.3,59.3,29.98,SW,233,0.0,4.0,90,0.00,,OVC013,0.02,VWS V14.01,2013-06-08 16:27:00,
2013-06-08 12:30:00,62.7,59.4,29.98,WSW,257,0.0,4.0,89,0.00,,OVC065,0.02,VWS V14.01,2013-06-08 16:30:00,
2013-06-08 12:32:00,62.7,59.4,29.98,WSW,256,1.0,4.0,89,0.00,,OVC035,0.02,VWS V14.01,2013-06-08 16:32:00,
2013-06-08 12:37:00,62.6,58.7,29.98,WSW,250,2.0,4.0,87,0.00,,OVC035,0.02,VWS V14.01,2013-06-08 16:37:00,
2013-06-08 12:42:00,62.6,58.4,29.98,NW,309,2.0,5.0,86,0.00,,OVC035,0.02,VWS V14.01,2013-06-08 16:42:00,
2013-06-08 12:47:00,62.4,58.5,29.98,WSW,250,1.0,5.0,87,0.00,,OVC035,0.02,VWS V14.01,2013-06-08 16:47:00,
2013-06-08 12:52:00,62.0,58.1,29.98,WSW,250,1.0,5.0,87,0.00,,OVC035,0.02,VWS V14.01,2013-06-08 16:52:00,
2013-06-08 12:57:00,61.7,58.4,29.98,West,270,1.0,5.0,89,0.00,,OVC035,0.02,VWS V14.01,2013-06-08 16:57:00,
2013-06-08 13:00:00,61.3,57.7,29.98,West,259,2.0,5.0,88,0.00,,OVC065,0.02,VWS V14.01,2013-06-08 17:00:00,
2013-06-08 13:02:00,61.4,58.1,29.98,West,271,1.0,5.0,89,0.00,,OVC035,0.02,VWS V14.01,2013-06-08 17:02:00,
2013-06-08 13:07:00,61.1,57.8,29.99,West,262,1.0,3.0,89,0.00,,OVC035,0.02,VWS V14.01,2013-06-08 17:07:00,
2013-06-08 13:12:00,61.1,58.2,29.99,WSW,257,1.0,3.0,90,0.00,,OVC035,0.02,VWS V14.01,2013-06-08 17:12:00,
2013-06-08 13:18:00,61.2,58.2,29.98,WSW,257,0.0,3.0,90,0.00,,OVC035,0.02,VWS V14.01,2013-06-08 17:18:00,
2013-06-08 13:23:00,61.3,58.0,29.98,West,280,0.0,3.0,89,0.00,,OVC035,0.02,VWS V14.01,2013-06-08 17:23:00,
2013-06-08 13:28:00,61.4,58.1,29.99,West,262,1.0,3.0,89,0.00,,OVC035,0.02,VWS V14.01,2013-06-08 17:28:00,
2013-06-08 13:30:00,61.6,58.6,29.99,WSW,249,2.0,3.0,90,0.00,,OVC065,0.02,VWS V14.01,2013-06-08 17:30:00,
2013-06-08 13:34:00,61.6,58.6,29.99,West,270,1.0,3.0,90,0.00,,OVC041,0.02,VWS V14.01,2013-06-08 17:34:00,
2013-06-08 13:39:00,61.8,58.5,29.98,NW,316,0.0,3.0,89,0.00,,OVC041,0.02,VWS V14.01,2013-06-08 17:39:00,
2013-06-08 13:44:00,61.8,58.2,29.99,West,264,0.0,3.0,88,0.00,,OVC041,0.02,VWS V14.01,2013-06-08 17:44:00,
2013-06-08 13:49:00,62.1,58.5,29.99,West,260,0.0,3.0,88,0.00,,OVC041,0.02,VWS V14.01,2013-06-08 17:49:00,
2013-06-08 13:54:00,62.4,58.5,29.99,NNW,347,1.0,3.0,87,0.00,,OVC041,0.02,VWS V14.01,2013-06-08 17:54:00,
2013-06-08 13:59:00,63.2,59.3,29.99,WNW,283,0.0,3.0,87,0.00,,OVC041,0.02,VWS V14.01,2013-06-08 17:59:00,
2013-06-08 14:00:00,63.7,59.8,29.99,NNW,331,1.0,3.0,87,0.00,,OVC065,0.02,VWS V14.01,2013-06-08 18:00:00,
2013-06-08 14:04:00,63.7,59.4,29.99,North,358,0.0,1.0,86,0.00,,OVC035,0.02,VWS V14.01,2013-06-08 18:04:00,
2013-06-08 14:09:00,63.8,58.9,29.99,West,266,1.0,2.0,84,0.00,,OVC035,0.02,VWS V14.01,2013-06-08 18:09:00,
2013-06-08 14:14:00,63.6,58.7,29.99,WSW,257,1.0,2.0,84,0.00,,OVC035,0.02,VWS V14.01,2013-06-08 18:14:00,
2013-06-08 14:19:00,63.5,58.9,30.00,West,264,0.0,2.0,85,0.00,,OVC035,0.02,VWS V14.01,2013-06-08 18:19:00,
2013-06-08 14:24:00,63.4,59.2,30.00,West,274,0.0,2.0,86,0.00,,OVC035,0.02,VWS V14.01,2013-06-08 18:24:00,
2013-06-08 14:29:00,63.4,58.8,30.00,WNW,284,0.0,2.0,85,0.00,,OVC035,0.02,VWS V14.01,2013-06-08 18:29:00,
2013-06-08 14:30:00,63.4,59.2,30.00,WNW,284,0.0,2.0,86,0.00,,OVC065,0.02,VWS V14.01,2013-06-08 18:30:00,
2013-06-08 14:35:00,63.4,58.8,29.99,WNW,283,0.0,0.0,85,0.00,,OVC039,0.02,VWS V14.01,2013-06-08 18:35:00,
2013-06-08 14:40:00,63.5,59.2,30.00,West,259,0.0,0.0,86,0.00,,OVC039,0.02,VWS V14.01,2013-06-08 18:40:00,
2013-06-08 14:45:00,63.3,59.4,30.00,West,262,0.0,1.0,87,0.00,,OVC039,0.02,VWS V14.01,2013-06-08 18:45:00,
2013-06-08 14:50:00,63.2,59.3,30.00,West,266,0.0,1.0,87,0.00,,OVC039,0.02,VWS V14.01,2013-06-08 18:50:00,
2013-06-08 14:55:00,63.2,59.3,30.00,West,262,0.0,1.0,87,0.00,,OVC039,0.02,VWS V14.01,2013-06-08 18:55:00,
2013-06-08 15:00:00,63.2,59.3,30.01,West,267,1.0,1.0,87,0.00,,OVC039,0.02,VWS V14.01,2013-06-08 19:00:00,
2013-06-08 15:05:00,63.1,58.8,30.01,WNW,302,0.0,3.0,86,0.00,,OVC039,0.02,VWS V14.01,2013-06-08 19:05:00,
2013-06-08 15:10:00,62.7,58.5,30.01,West,269,0.0,3.0,86,0.00,,OVC039,0.02,VWS V14.01,2013-06-08 19:10:00,
2013-06-08 15:15:00,62.3,58.1,30.01,NW,315,2.0,3.0,86,0.00,,OVC039,0.02,VWS V14.01,2013-06-08 19:15:00,
2013-06-08 15:20:00,61.9,58.0,30.01,NW,310,0.0,4.0,87,0.00,,OVC039,0.02,VWS V14.01,2013-06-08 19:20:00,
2013-06-08 15:25:00,61.8,58.2,30.01,North,354,1.0,4.0,88,0.00,,OVC039,0.02,VWS V14.01,2013-06-08 19:25:00,
2013-06-08 15:30:00,62.1,58.8,30.01,West,259,0.0,4.0,89,0.00,,OVC065,0.02,VWS V14.01,2013-06-08 19:30:00,
2013-06-08 15:31:00,62.0,58.7,30.01,West,272,0.0,4.0,89,0.00,,OVC039,0.02,VWS V14.01,2013-06-08 19:31:00,
2013-06-08 15:36:00,62.2,58.6,30.01,West,269,1.0,1.0,88,0.00,,OVC045,0.02,VWS V14.01,2013-06-08 19:36:00,
2013-06-08 15:41:00,62.5,58.6,30.01,West,270,0.0,4.0,87,0.00,,OVC045,0.02,VWS V14.01,2013-06-08 19:41:00,
2013-06-08 15:46:00,62.4,58.2,30.01,NW,312,2.0,6.0,86,0.00,,OVC045,0.02,VWS V14.01,2013-06-08 19:46:00,
2013-06-08 15:51:00,62.1,57.9,30.01,West,266,0.0,6.0,86,0.00,,OVC045,0.02,VWS V14.01,2013-06-08 19:51:00,
2013-06-08 15:56:00,61.9,58.0,30.02,West,269,1.0,6.0,87,0.00,,OVC045,0.02,VWS V14.01,2013-06-08 19:56:00,
2013-06-08 16:00:00,61.9,58.3,30.02,West,273,1.0,6.0,88,0.00,,OVC065,0.02,VWS V14.01,2013-06-08 20:00:00,
2013-06-08 16:01:00,61.9,58.3,30.02,WSW,252,1.0,6.0,88,0.00,,OVC045,0.02,VWS V14.01,2013-06-08 20:01:00,
2013-06-08 16:06:00,62.0,58.1,30.02,West,277,1.0,4.0,87,0.00,,OVC045,0.02,VWS V14.01,2013-06-08 20:06:00,
2013-06-08 16:11:00,62.0,58.4,30.02,West,267,1.0,4.0,88,0.00,,OVC045,0.02,VWS V14.01,2013-06-08 20:11:00,
2013-06-08 16:16:00,62.1,58.5,30.02,West,271,1.0,4.0,88,0.00,,OVC045,0.02,VWS V14.01,2013-06-08 20:16:00,
2013-06-08 16:21:00,62.3,58.4,30.02,West,259,1.0,4.0,87,0.00,,OVC045,0.02,VWS V14.01,2013-06-08 20:21:00,
2013-06-08 16:27:00,62.1,57.9,30.02,NW,310,1.0,5.0,86,0.00,,OVC045,0.02,VWS V14.01,2013-06-08 20:27:00,
2013-06-08 16:30:00,62.2,58.0,30.02,WNW,300,0.0,5.0,86,0.00,,OVC065,0.02,VWS V14.01,2013-06-08 20:30:00,
2013-06-08 16:32:00,62.2,58.0,30.02,WNW,301,0.0,5.0,86,0.00,,OVC045,0.02,VWS V14.01,2013-06-08 20:32:00,
2013-06-08 16:37:00,62.3,57.7,30.02,WSW,249,2.0,5.0,85,0.00,,OVC060,0.02,VWS V14.01,2013-06-08 20:37:00,
2013-06-08 16:42:00,62.4,57.5,30.02,West,274,1.0,5.0,84,0.00,,OVC060,0.02,VWS V14.01,2013-06-08 20:42:00,
2013-06-08 16:47:00,62.4,57.8,30.03,NW,319,1.0,5.0,85,0.00,,OVC060,0.02,VWS V14.01,2013-06-08 20:47:00,
2013-06-08 16:52:00,62.4,57.5,30.03,West,269,0.0,5.0,84,0.00,,OVC060,0.02,VWS V14.01,2013-06-08 20:52:00,
2013-06-08 16:57:00,62.6,58.4,30.03,West,266,0.0,5.0,86,0.00,,OVC060,0.02,VWS V14.01,2013-06-08 20:57:00,
2013-06-08 17:00:00,62.9,58.3,30.03,NW,307,2.0,5.0,85,0.00,,OVC065,0.02,VWS V14.01,2013-06-08 21:00:00,
2013-06-08 17:02:00,62.9,58.3,30.03,West,276,1.0,5.0,85,0.00,,OVC060,0.02,VWS V14.01,2013-06-08 21:02:00,
2013-06-08 17:07:00,63.0,58.1,30.03,WNW,290,1.0,5.0,84,0.00,,OVC060,0.02,VWS V14.01,2013-06-08 21:07:00,
2013-06-08 17:12:00,63.0,57.4,30.03,WNW,285,0.0,5.0,82,0.00,,OVC060,0.02,VWS V14.01,2013-06-08 21:12:00,
2013-06-08 17:17:00,63.0,58.1,30.03,West,271,0.0,5.0,84,0.00,,OVC060,0.02,VWS V14.01,2013-06-08 21:17:00,
2013-06-08 17:22:00,63.2,58.6,30.03,NNW,346,5.0,5.0,85,0.00,,OVC060,0.02,VWS V14.01,2013-06-08 21:22:00,
2013-06-08 17:27:00,63.7,58.1,30.03,WNW,287,1.0,5.0,82,0.00,,OVC060,0.02,VWS V14.01,2013-06-08 21:27:00,
2013-06-08 17:30:00,64.0,58.4,30.03,West,262,2.0,5.0,82,0.00,,OVC065,0.02,VWS V14.01,2013-06-08 21:30:00,
2013-06-08 17:32:00,64.0,58.4,30.03,West,259,3.0,5.0,82,0.00,,OVC065,0.02,VWS V14.01,2013-06-08 21:32:00,
2013-06-08 17:38:00,64.0,58.4,30.03,West,259,1.0,3.0,82,0.00,,OVC065,0.02,VWS V14.01,2013-06-08 21:38:00,
2013-06-08 17:43:00,63.6,58.0,30.03,West,277,0.0,3.0,82,0.00,,OVC065,0.02,VWS V14.01,2013-06-08 21:43:00,
2013-06-08 17:48:00,63.3,58.1,30.03,NNW,328,0.0,3.0,83,0.00,,OVC065,0.02,VWS V14.01,2013-06-08 21:48:00,
2013-06-08 17:53:00,63.2,58.0,30.03,NNW,334,0.0,3.0,83,0.00,,OVC065,0.02,VWS V14.01,2013-06-08 21:53:00,
2013-06-08 17:58:00,63.2,58.0,30.03,WNW,292,0.0,3.0,83,0.00,,OVC065,0.02,VWS V14.01,2013-06-08 21:58:00,
2013-06-08 18:00:00,63.4,58.5,30.03,West,273,1.0,3.0,84,0.00,,OVC065,0.02,VWS V14.01,2013-06-08 22:00:00,
2013-06-08 18:03:00,63.4,58.5,30.03,WNW,296,2.0,2.0,84,0.00,,OVC065,0.02,VWS V14.01,2013-06-08 22:03:00,
2013-06-08 18:14:00,62.8,57.2,30.03,WSW,257,1.0,1.0,82,0.00,,OVC065,0.02,VWS V14.01,2013-06-08 22:14:00,
2013-06-08 18:19:00,62.6,57.0,30.04,West,269,0.0,3.0,82,0.00,,OVC065,0.02,VWS V14.01,2013-06-08 22:19:00,
2013-06-08 18:24:00,62.4,57.5,30.04,West,269,0.0,3.0,84,0.00,,OVC065,0.02,VWS V14.01,2013-06-08 22:24:00,
2013-06-08 18:29:00,62.2,57.3,30.03,West,269,1.0,5.0,84,0.00,,OVC065,0.02,VWS V14.01,2013-06-08 22:29:00,
2013-06-08 18:30:00,62.1,57.2,30.03,West,269,0.0,5.0,84,0.00,,OVC,0.02,VWS V14.01,2013-06-08 22:30:00,
2013-06-08 18:34:00,62.0,57.5,30.03,West,276,0.0,0.0,85,0.00,,OVC065,0.02,VWS V14.01,2013-06-08 22:34:00,
2013-06-08 18:39:00,61.9,57.3,30.03,WSW,242,0.0,0.0,85,0.00,,OVC065,0.02,VWS V14.01,2013-06-08 22:39:00,
2013-06-08 18:44:00,61.8,57.6,30.04,WSW,248,0.0,1.0,86,0.00,,OVC065,0.02,VWS V14.01,2013-06-08 22:44:00,
2013-06-08 18:50:00,61.7,57.5,30.04,West,260,0.0,1.0,86,0.00,,OVC070,0.02,VWS V14.01,2013-06-08 22:50:00,
2013-06-08 18:55:00,61.8,57.6,30.04,NNW,343,0.0,1.0,86,0.00,,OVC070,0.02,VWS V14.01,2013-06-08 22:55:00,
2013-06-08 19:00:00,61.9,57.7,30.04,NNW,345,0.0,1.0,86,0.00,,OVC070,0.02,VWS V14.01,2013-06-08 23:00:00,
2013-06-08 19:05:00,61.9,57.7,30.04,NNW,329,1.0,1.0,86,0.00,,OVC070,0.02,VWS V14.01,2013-06-08 23:05:00,
2013-06-08 19:10:00,61.9,58.0,30.04,WSW,255,0.0,1.0,87,0.00,,OVC070,0.02,VWS V14.01,2013-06-08 23:10:00,
2013-06-08 19:15:00,61.9,58.0,30.04,WSW,256,0.0,1.0,87,0.00,,OVC070,0.02,VWS V14.01,2013-06-08 23:15:00,
2013-06-08 19:20:00,61.8,57.6,30.05,West,259,0.0,1.0,86,0.00,,OVC070,0.02,VWS V14.01,2013-06-08 23:20:00,
2013-06-08 19:25:00,61.8,57.2,30.05,West,259,0.0,1.0,85,0.00,,OVC070,0.02,VWS V14.01,2013-06-08 23:25:00,
2013-06-08 19:30:00,61.7,57.2,30.05,West,259,0.0,1.0,85,0.00,,OVC070,0.02,VWS V14.01,2013-06-08 23:30:00,
2013-06-08 19:35:00,61.7,57.2,30.05,West,269,0.0,0.0,85,0.00,,OVC065,0.02,VWS V14.01,2013-06-08 23:35:00,
2013-06-08 19:40:00,61.6,57.0,30.05,West,259,0.0,1.0,85,0.00,,OVC065,0.02,VWS V14.01,2013-06-08 23:40:00,
2013-06-08 19:45:00,61.6,57.4,30.05,West,271,1.0,2.0,86,0.00,,OVC065,0.02,VWS V14.01,2013-06-08 23:45:00,
2013-06-08 19:50:00,61.5,57.0,30.05,West,274,1.0,2.0,85,0.00,,OVC065,0.02,VWS V14.01,2013-06-08 23:50:00,
2013-06-08 19:56:00,61.4,56.9,30.05,West,260,1.0,2.0,85,0.00,,OVC065,0.02,VWS V14.01,2013-06-08 23:56:00,
2013-06-08 20:00:00,61.3,56.8,30.05,West,271,1.0,2.0,85,0.00,,OVC,0.02,VWS V14.01,2013-06-09 00:00:00,
2013-06-08 20:01:00,61.3,56.8,30.05,West,274,1.0,2.0,85,0.00,,OVC065,0.02,VWS V14.01,2013-06-09 00:01:00,
2013-06-08 20:06:00,61.2,56.3,30.05,West,269,1.0,2.0,84,0.00,,OVC065,0.02,VWS V14.01,2013-06-09 00:06:00,
2013-06-08 20:11:00,61.2,56.3,30.05,WSW,255,1.0,3.0,84,0.00,,OVC065,0.02,VWS V14.01,2013-06-09 00:11:00,
2013-06-08 20:16:00,61.2,56.7,30.05,West,271,1.0,3.0,85,0.00,,OVC065,0.02,VWS V14.01,2013-06-09 00:16:00,
2013-06-08 20:21:00,61.1,56.2,30.06,West,267,1.0,3.0,84,0.00,,OVC065,0.02,VWS V14.01,2013-06-09 00:21:00,
2013-06-08 20:26:00,61.1,56.2,30.06,West,269,1.0,3.0,84,0.00,,OVC065,0.02,VWS V14.01,2013-06-09 00:26:00,
2013-06-08 20:30:00,61.1,56.2,30.06,West,273,1.0,3.0,84,0.00,,OVC,0.02,VWS V14.01,2013-06-09 00:30:00,
2013-06-08 20:31:00,61.1,56.2,30.06,West,266,2.0,3.0,84,0.00,,OVC065,0.02,VWS V14.01,2013-06-09 00:31:00,
2013-06-08 20:36:00,61.1,56.2,30.07,WSW,256,1.0,2.0,84,0.00,,OVC065,0.02,VWS V14.01,2013-06-09 00:36:00,
2013-06-08 20:41:00,61.1,56.2,30.07,West,274,1.0,2.0,84,0.00,,OVC065,0.02,VWS V14.01,2013-06-09 00:41:00,
2013-06-08 20:46:00,61.0,56.1,30.07,WSW,257,0.0,2.0,84,0.00,,OVC055,0.02,VWS V14.01,2013-06-09 00:46:00,
2013-06-08 20:51:00,61.0,56.1,30.07,West,259,0.0,2.0,84,0.00,,OVC055,0.02,VWS V14.01,2013-06-09 00:51:00,
2013-06-08 20:56:00,61.0,56.1,30.07,West,269,0.0,2.0,84,0.00,,OVC055,0.02,VWS V14.01,2013-06-09 00:56:00,
2013-06-08 21:00:00,61.0,55.8,30.07,WSW,247,1.0,2.0,83,0.00,,OVC,0.02,VWS V14.01,2013-06-09 01:00:00,
2013-06-08 21:01:00,61.0,55.8,30.07,WSW,240,1.0,2.0,83,0.00,,OVC055,0.02,VWS V14.01,2013-06-09 01:01:00,
2013-06-08 21:06:00,61.0,55.8,30.07,West,266,0.0,1.0,83,0.00,,OVC055,0.02,VWS V14.01,2013-06-09 01:06:00,
2013-06-08 21:11:00,60.9,55.7,30.07,West,276,0.0,1.0,83,0.00,,OVC055,0.02,VWS V14.01,2013-06-09 01:11:00,
2013-06-08 21:17:00,60.9,56.0,30.08,West,266,1.0,1.0,84,0.00,,OVC055,0.02,VWS V14.01,2013-06-09 01:17:00,
2013-06-08 21:22:00,60.9,56.0,30.08,West,266,0.0,1.0,84,0.00,,OVC055,0.02,VWS V14.01,2013-06-09 01:22:00,
2013-06-08 21:27:00,60.9,55.7,30.08,West,267,0.0,1.0,83,0.00,,OVC055,0.02,VWS V14.01,2013-06-09 01:27:00,
2013-06-08 21:30:00,60.9,55.7,30.08,West,259,0.0,1.0,83,0.00,,OVC,0.02,VWS V14.01,2013-06-09 01:30:00,
2013-06-08 21:32:00,60.9,55.7,30.08,West,259,0.0,1.0,83,0.00,,OVC055,0.02,VWS V14.01,2013-06-09 01:32:00,
2013-06-08 21:37:00,60.9,56.0,30.08,West,269,0.0,1.0,84,0.00,,OVC055,0.02,VWS V14.01,2013-06-09 01:37:00,
2013-06-08 21:42:00,60.8,55.9,30.08,West,270,1.0,1.0,84,0.00,,OVC055,0.02,VWS V14.01,2013-06-09 01:42:00,
2013-06-08 21:47:00,60.8,55.9,30.08,West,273,0.0,1.0,84,0.00,,OVC060,0.02,VWS V14.01,2013-06-09 01:47:00,
2013-06-08 21:52:00,60.7,55.5,30.09,NNW,332,0.0,1.0,83,0.00,,OVC060,0.02,VWS V14.01,2013-06-09 01:52:00,
2013-06-08 21:57:00,60.7,55.5,30.09,NNW,348,0.0,1.0,83,0.00,,OVC060,0.02,VWS V14.01,2013-06-09 01:57:00,
2013-06-08 22:00:00,60.7,55.5,30.09,West,269,0.0,2.0,83,0.00,,OVC,0.02,VWS V14.01,2013-06-09 02:00:00,
2013-06-08 22:02:00,60.7,55.5,30.09,West,269,0.0,2.0,83,0.00,,OVC060,0.02,VWS V14.01,2013-06-09 02:02:00,
2013-06-08 22:07:00,60.7,55.8,30.10,West,271,0.0,1.0,84,0.00,,OVC060,0.02,VWS V14.01,2013-06-09 02:07:00,
2013-06-08 22:12:00,60.7,55.8,30.10,West,271,0.0,1.0,84,0.00,,OVC060,0.02,VWS V14.01,2013-06-09 02:12:00,
2013-06-08 22:17:00,60.6,55.4,30.10,West,273,0.0,1.0,83,0.00,,OVC060,0.02,VWS V14.01,2013-06-09 02:17:00,
2013-06-08 22:23:00,60.6,55.8,30.10,NW,322,0.0,1.0,84,0.00,,OVC060,0.02,VWS V14.01,2013-06-09 02:23:00,
2013-06-08 22:28:00,60.5,55.7,30.10,ENE,58,0.0,1.0,84,0.00,,OVC060,0.02,VWS V14.01,2013-06-09 02:28:00,
2013-06-08 22:30:00,60.4,55.5,30.10,ENE,58,0.0,1.0,84,0.00,,OVC,0.02,VWS V14.01,2013-06-09 02:30:00,
2013-06-08 22:33:00,60.4,55.5,30.10,ENE,58,0.0,1.0,84,0.00,,OVC060,0.02,VWS V14.01,2013-06-09 02:33:00,
2013-06-08 22:38:00,60.2,55.7,30.11,ENE,58,0.0,1.0,85,0.00,,OVC060,0.02,VWS V14.01,2013-06-09 02:38:00,
2013-06-08 22:43:00,59.9,55.7,30.11,ENE,58,0.0,1.0,86,0.00,,OVC060,0.02,VWS V14.01,2013-06-09 02:43:00,
2013-06-08 22:48:00,59.7,55.5,30.11,ENE,58,0.0,1.0,86,0.00,,OVC060,0.02,VWS V14.01,2013-06-09 02:48:00,
2013-06-08 22:53:00,59.6,55.7,30.10,ENE,58,0.0,1.0,87,0.00,,OVC060,0.02,VWS V14.01,2013-06-09 02:53:00,
2013-06-08 22:58:00,59.5,55.6,30.10,NW,315,0.0,1.0,87,0.00,,OVC060,0.02,VWS V14.01,2013-06-09 02:58:00,
2013-06-08 23:00:00,59.5,55.6,30.11,NW,315,0.0,1.0,87,0.00,,OVC,0.02,VWS V14.01,2013-06-09 03:00:00,
2013-06-08 23:03:00,59.5,55.6,30.11,NW,315,0.0,0.0,87,0.00,,OVC060,0.02,VWS V14.01,2013-06-09 03:03:00,
2013-06-08 23:08:00,59.5,55.6,30.11,West,276,0.0,0.0,87,0.00,,OVC060,0.02,VWS V14.01,2013-06-09 03:08:00,
2013-06-08 23:13:00,59.5,55.6,30.11,WSW,250,0.0,0.0,87,0.00,,OVC060,0.02,VWS V14.01,2013-06-09 03:13:00,
2013-06-08 23:19:00,59.4,55.5,30.11,WSW,250,0.0,0.0,87,0.00,,OVC060,0.02,VWS V14.01,2013-06-09 03:19:00,
2013-06-08 23:24:00,59.0,55.5,30.11,WSW,253,0.0,0.0,88,0.00,,OVC060,0.02,VWS V14.01,2013-06-09 03:24:00,
2013-06-08 23:29:00,58.6,55.4,30.11,WSW,253,0.0,0.0,89,0.00,,OVC060,0.02,VWS V14.01,2013-06-09 03:29:00,
2013-06-08 23:30:00,58.4,55.2,30.11,WSW,253,0.0,0.0,89,0.00,,OVC,0.02,VWS V14.01,2013-06-09 03:30:00,
2013-06-08 23:34:00,58.3,55.4,30.11,WSW,253,0.0,0.0,90,0.00,,OVC060,0.02,VWS V14.01,2013-06-09 03:34:00,
2013-06-08 23:39:00,58.0,55.1,30.11,SW,231,0.0,0.0,90,0.00,,OVC060,0.02,VWS V14.01,2013-06-09 03:39:00,
2013-06-08 23:44:00,57.8,54.9,30.12,SW,226,0.0,0.0,90,0.00,,OVC060,0.02,VWS V14.01,2013-06-09 03:44:00,
2013-06-08 23:49:00,57.7,55.1,30.11,ESE,113,0.0,0.0,91,0.00,,OVC060,0.02,VWS V14.01,2013-06-09 03:49:00,
2013-06-08 23:54:00,57.5,54.9,30.11,ESE,113,0.0,0.0,91,0.00,,OVC060,0.02,VWS V14.01,2013-06-09 03:54:00,
2013-06-08 23:59:00,57.2,54.6,30.12,ESE,113,0.0,0.0,91,0.00,,OVC060,0.02,VWS V14.01,2013-06-09 03:59:00,